| time (UTC) | temp C | wind direction | speed KPH | gust KPH | rain 1hr cm | rain 24hr cm | rain mn cm | humidity % | barometer mb |
| 20260906222246 | 25 | 59 | 6.4 | 9.7 | 0.00 | 0.00 | 0.00 | 52 | 1012.4 |
| 20260906221743 | 26 | 78 | 8.0 | 14.5 | 0.00 | 0.00 | 0.00 | 51 | 1012.2 |
| 20260906221238 | 26 | 28 | 4.8 | 4.8 | 0.00 | 0.00 | 0.00 | 50 | 1012.2 |
| 20260906220733 | 26 | 42 | 3.2 | 3.2 | 0.00 | 0.00 | 0.00 | 51 | 1012.2 |
| 20260906220228 | 25 | 39 | 8.0 | 9.7 | 0.00 | 0.00 | 0.00 | 52 | 1012.5 |
| 20260906215727 | 26 | 69 | 9.7 | 12.9 | 0.00 | 0.00 | 0.00 | 52 | 1012.2 |
| 20260906215221 | 25 | 77 | 8.0 | 12.9 | 0.00 | 0.00 | 0.00 | 54 | 1012.4 |
| 20260906214719 | 24 | 51 | 6.4 | 11.3 | 0.00 | 0.00 | 0.00 | 56 | 1012.4 |
| 20260906214214 | 25 | 46 | 4.8 | 4.8 | 0.00 | 0.00 | 0.00 | 55 | 1012.6 |
| 20260906213708 | 26 | 44 | 4.8 | 4.8 | 0.00 | 0.00 | 0.00 | 52 | 1012.6 |
| 20260906213202 | 26 | 1 | 4.8 | 4.8 | 0.00 | 0.00 | 0.00 | 52 | 1012.6 |
| 20260906212700 | 26 | 74 | 8.0 | 14.5 | 0.00 | 0.00 | 0.00 | 52 | 1012.8 |
| 20260906212155 | 26 | 63 | 9.7 | 12.9 | 0.00 | 0.00 | 0.00 | 52 | 1012.6 |
| 20260906211655 | 26 | 83 | 9.7 | 12.9 | 0.00 | 0.00 | 0.00 | 52 | 1013.2 |
| 20260906211150 | 26 | 78 | 6.4 | 8.0 | 0.00 | 0.00 | 0.00 | 52 | 1012.9 |
| 20260906210645 | 25 | 60 | 8.0 | 11.3 | 0.00 | 0.00 | 0.00 | 53 | 1013.0 |
| 20260906210140 | 25 | 60 | 9.7 | 11.3 | 0.00 | 0.00 | 0.00 | 53 | 1013.0 |
| 20260906205636 | 25 | 59 | 6.4 | 8.0 | 0.00 | 0.00 | 0.00 | 54 | 1013.0 |
| 20260906205132 | 25 | 54 | 8.0 | 11.3 | 0.00 | 0.00 | 0.00 | 55 | 1013.4 |
| 20260906204631 | 25 | 64 | 9.7 | 12.9 | 0.00 | 0.00 | 0.00 | 54 | 1013.5 |
| 20260906204126 | 25 | 64 | 6.4 | 9.7 | 0.00 | 0.00 | 0.00 | 55 | 1013.3 |
| 20260906203626 | 25 | 49 | 8.0 | 14.5 | 0.00 | 0.00 | 0.00 | 54 | 1013.6 |
| 20260906203126 | 25 | 71 | 9.7 | 11.3 | 0.00 | 0.00 | 0.00 | 57 | 1013.6 |
| 20260906202623 | 24 | 65 | 4.8 | 4.8 | 0.00 | 0.00 | 0.00 | 57 | 1013.7 |
| 20260906202117 | 24 | 43 | 12.9 | 16.1 | 0.00 | 0.00 | 0.00 | 57 | 1013.8 |
| 20260906201612 | 23 | 57 | 9.7 | 12.9 | 0.00 | 0.00 | 0.00 | 57 | 1013.9 |
| 20260906201111 | 25 | 68 | 4.8 | 9.7 | 0.00 | 0.00 | 0.00 | 55 | 1013.8 |
| 20260906200608 | 24 | 72 | 8.0 | 12.9 | 0.00 | 0.00 | 0.00 | 55 | 1013.9 |
| 20260906200103 | 23 | 60 | 6.4 | 12.9 | 0.00 | 0.00 | 0.00 | 57 | 1013.9 |
| 20260906195558 | 23 | 64 | 4.8 | 8.0 | 0.00 | 0.00 | 0.00 | 57 | 1013.7 |
| 20260906195054 | 23 | 31 | 4.8 | 8.0 | 0.00 | 0.00 | 0.00 | 58 | 1014.1 |
| 20260906194550 | 23 | 357 | 3.2 | 3.2 | 0.00 | 0.00 | 0.00 | 59 | 1014.1 |
| 20260906194046 | 23 | 45 | 4.8 | 4.8 | 0.00 | 0.00 | 0.00 | 59 | 1014.3 |
| 20260906193545 | 23 | 37 | 3.2 | 4.8 | 0.00 | 0.00 | 0.00 | 60 | 1014.3 |
| 20260906193041 | 23 | 37 | 8.0 | 9.7 | 0.00 | 0.00 | 0.00 | 60 | 1014.4 |
| 20260906192536 | 22 | 124 | 8.0 | 9.7 | 0.00 | 0.00 | 0.00 | 62 | 1014.3 |
| 20260906192035 | 22 | 28 | 3.2 | 4.8 | 0.00 | 0.00 | 0.00 | 63 | 1014.5 |
| 20260906191531 | 22 | 18 | 3.2 | 3.2 | 0.00 | 0.00 | 0.00 | 63 | 1014.3 |
| 20260906191029 | 22 | 86 | 4.8 | 4.8 | 0.00 | 0.00 | 0.00 | 63 | 1014.8 |
| 20260906190529 | 22 | 37 | 3.2 | 4.8 | 0.00 | 0.00 | 0.00 | 62 | 1014.8 |
| 20260906190024 | 22 | 38 | 4.8 | 9.7 | 0.00 | 0.00 | 0.00 | 63 | 1014.8 |
| 20260906185523 | 22 | 71 | 8.0 | 8.0 | 0.00 | 0.00 | 0.00 | 65 | 1015.0 |
| 20260906185022 | 21 | 94 | 11.3 | 12.9 | 0.00 | 0.00 | 0.00 | 66 | 1014.9 |
| 20260906184517 | 21 | 97 | 11.3 | 14.5 | 0.00 | 0.00 | 0.00 | 66 | 1015.3 |
| 20260906184013 | 22 | 78 | 8.0 | 9.7 | 0.00 | 0.00 | 0.00 | 65 | 1015.3 |
| 20260906183509 | 21 | 62 | 9.7 | 11.3 | 0.00 | 0.00 | 0.00 | 66 | 1015.4 |
| 20260906183004 | 21 | 46 | 6.4 | 8.0 | 0.00 | 0.00 | 0.00 | 66 | 1015.6 |
| 20260906182459 | 21 | 77 | 9.7 | 14.5 | 0.00 | 0.00 | 0.00 | 64 | 1015.5 |
| 20260906181955 | 21 | 74 | 3.2 | 4.8 | 0.00 | 0.00 | 0.00 | 66 | 1015.5 |
| 20260906181451 | 21 | 51 | 3.2 | 4.8 | 0.00 | 0.00 | 0.00 | 67 | 1015.6 |
| 20260906180946 | 21 | 69 | 4.8 | 8.0 | 0.00 | 0.00 | 0.00 | 66 | 1015.9 |
| 20260906180441 | 21 | 34 | 4.8 | 8.0 | 0.00 | 0.00 | 0.00 | 66 | 1015.9 |
| 20260906175939 | 21 | 39 | 4.8 | 8.0 | 0.00 | 0.00 | 0.00 | 67 | 1015.7 |
| 20260906175434 | 21 | 19 | 4.8 | 8.0 | 0.00 | 0.00 | 0.00 | 67 | 1016.0 |
| 20260906174932 | 20 | 63 | 4.8 | 9.7 | 0.00 | 0.00 | 0.00 | 68 | 1016.1 |
| 20260906174432 | 20 | 58 | 4.8 | 9.7 | 0.00 | 0.00 | 0.00 | 68 | 1016.4 |
| 20260906173927 | 20 | 34 | 3.2 | 3.2 | 0.00 | 0.00 | 0.00 | 67 | 1016.3 |
| 20260906173422 | 20 | 38 | 6.4 | 9.7 | 0.00 | 0.00 | 0.00 | 68 | 1016.5 |
| 20260906172921 | 20 | 61 | 4.8 | 9.7 | 0.00 | 0.00 | 0.00 | 68 | 1016.6 |
| 20260906172418 | 20 | 26 | 3.2 | 3.2 | 0.00 | 0.00 | 0.00 | 69 | 1016.5 |
| 20260906171913 | 19 | 75 | 4.8 | 8.0 | 0.00 | 0.00 | 0.00 | 69 | 1016.8 |
| 20260906171407 | 19 | 19 | 8.0 | 9.7 | 0.00 | 0.00 | 0.00 | 70 | 1016.7 |
| 20260906170903 | 20 | 25 | 9.7 | 12.9 | 0.00 | 0.00 | 0.00 | 70 | 1016.7 |
| 20260906170354 | 19 | 23 | 6.4 | 9.7 | 0.00 | 0.00 | 0.00 | 72 | 1016.6 |
| 20260906165850 | 19 | 54 | 3.2 | 4.8 | 0.00 | 0.00 | 0.00 | 73 | 1016.8 |
| 20260906165349 | 19 | 55 | 4.8 | 4.8 | 0.00 | 0.00 | 0.00 | 73 | 1017.0 |
| 20260906164844 | 19 | 44 | 8.0 | 9.7 | 0.00 | 0.00 | 0.00 | 74 | 1016.7 |
| 20260906164343 | 18 | 6 | 6.4 | 8.0 | 0.00 | 0.00 | 0.00 | 75 | 1017.0 |
| 20260906163839 | 18 | 39 | 4.8 | 8.0 | 0.00 | 0.00 | 0.00 | 76 | 1016.8 |
| 20260906163336 | 18 | 49 | 8.0 | 9.7 | 0.00 | 0.00 | 0.00 | 75 | 1016.9 |
| 20260906162833 | 18 | 29 | 3.2 | 8.0 | 0.00 | 0.00 | 0.00 | 76 | 1016.7 |
| 20260906162332 | 18 | 33 | 1.6 | 3.2 | 0.00 | 0.00 | 0.00 | 76 | 1016.9 |
| 20260906161827 | 18 | 58 | 3.2 | 4.8 | 0.00 | 0.00 | 0.00 | 76 | 1016.9 |
| 20260906161326 | 18 | 49 | 4.8 | 4.8 | 0.00 | 0.00 | 0.00 | 76 | 1017.2 |
| 20260906160825 | 18 | 49 | 4.8 | 4.8 | 0.00 | 0.00 | 0.00 | 76 | 1016.9 |
| 20260906160319 | 18 | 35 | 3.2 | 3.2 | 0.00 | 0.00 | 0.00 | 76 | 1016.9 |
| 20260906155818 | 18 | 53 | 4.8 | 8.0 | 0.00 | 0.00 | 0.00 | 76 | 1016.8 |
| 20260906155311 | 18 | 33 | 6.4 | 8.0 | 0.00 | 0.00 | 0.00 | 76 | 1016.8 |
| 20260906154807 | 18 | 48 | 6.4 | 9.7 | 0.00 | 0.00 | 0.00 | 75 | 1016.8 |
| 20260906154256 | 18 | 42 | 4.8 | 9.7 | 0.00 | 0.00 | 0.00 | 75 | 1016.6 |
| 20260906153755 | 18 | 9 | 6.4 | 9.7 | 0.00 | 0.00 | 0.00 | 75 | 1016.4 |
| 20260906153249 | 18 | 49 | 6.4 | 9.7 | 0.00 | 0.00 | 0.00 | 75 | 1016.7 |
| 20260906152744 | 18 | 15 | 8.0 | 9.7 | 0.00 | 0.00 | 0.00 | 76 | 1016.6 |
| 20260906152239 | 18 | 42 | 4.8 | 8.0 | 0.00 | 0.00 | 0.00 | 77 | 1016.4 |
| 20260906151739 | 18 | 33 | 4.8 | 4.8 | 0.00 | 0.00 | 0.00 | 77 | 1016.4 |
| 20260906151234 | 18 | 26 | 3.2 | 3.2 | 0.00 | 0.00 | 0.00 | 78 | 1016.6 |
| 20260906150730 | 18 | 18 | 4.8 | 4.8 | 0.00 | 0.00 | 0.00 | 78 | 1016.5 |
| 20260906150225 | 18 | 19 | 1.6 | 1.6 | 0.00 | 0.00 | 0.00 | 77 | 1016.8 |
| 20260906145724 | 18 | 6 | 3.2 | 3.2 | 0.00 | 0.00 | 0.00 | 77 | 1016.7 |
| 20260906145223 | 18 | 348 | 0.0 | 1.6 | 0.00 | 0.00 | 0.00 | 75 | 1016.6 |
| 20260906144719 | 18 | 335 | 3.2 | 3.2 | 0.00 | 0.00 | 0.00 | 74 | 1016.9 |
| 20260906144213 | 18 | 351 | 0.0 | 1.6 | 0.00 | 0.00 | 0.00 | 74 | 1016.6 |
| 20260906143713 | 17 | 351 | 1.6 | 1.6 | 0.00 | 0.00 | 0.00 | 75 | 1016.5 |
| 20260906143210 | 17 | 342 | 1.6 | 1.6 | 0.00 | 0.00 | 0.00 | 75 | 1016.5 |
| 20260906142709 | 17 | 22 | 0.0 | 1.6 | 0.00 | 0.00 | 0.00 | 78 | 1016.5 |
| 20260906142205 | 17 | 17 | 0.0 | 1.6 | 0.00 | 0.00 | 0.00 | 79 | 1016.5 |
| 20260906141703 | 17 | 37 | 1.6 | 3.2 | 0.00 | 0.00 | 0.00 | 79 | 1016.5 |
| 20260906141158 | 17 | 8 | 0.0 | 1.6 | 0.00 | 0.00 | 0.00 | 79 | 1016.5 |
| 20260906140658 | 17 | 18 | 1.6 | 1.6 | 0.00 | 0.00 | 0.00 | 80 | 1016.5 |
| 20260906140153 | 17 | 9 | 0.0 | 0.0 | 0.00 | 0.00 | 0.00 | 80 | 1016.3 |
| 20260906135649 | 16 | 17 | 0.0 | 0.0 | 0.00 | 0.00 | 0.00 | 81 | 1016.1 |
| 20260906135146 | 16 | 17 | 0.0 | 1.6 | 0.00 | 0.00 | 0.00 | 81 | 1016.1 |
| 20260906134641 | 16 | 91 | 4.8 | 4.8 | 0.00 | 0.00 | 0.00 | 82 | 1016.1 |
| 20260906134136 | 16 | 31 | 1.6 | 3.2 | 0.00 | 0.00 | 0.00 | 82 | 1016.4 |
| 20260906133632 | 16 | 28 | 1.6 | 1.6 | 0.00 | 0.00 | 0.00 | 82 | 1015.8 |
| 20260906133127 | 16 | 32 | 3.2 | 3.2 | 0.00 | 0.00 | 0.00 | 82 | 1015.7 |
| 20260906132627 | 16 | 32 | 4.8 | 8.0 | 0.00 | 0.00 | 0.00 | 82 | 1015.9 |
| 20260906132123 | 16 | 19 | 0.0 | 0.0 | 0.00 | 0.00 | 0.00 | 81 | 1016.4 |
| 20260906131618 | 16 | 288 | 4.8 | 4.8 | 0.00 | 0.00 | 0.00 | 83 | 1016.6 |
| 20260906131113 | 16 | 23 | 1.6 | 1.6 | 0.00 | 0.00 | 0.00 | 83 | 1016.0 |
| 20260906130609 | 15 | 53 | 4.8 | 4.8 | 0.00 | 0.00 | 0.00 | 83 | 1016.1 |
| 20260906130103 | 15 | 347 | 1.6 | 1.6 | 0.00 | 0.00 | 0.00 | 83 | 1016.4 |
| 20260906125600 | 15 | 19 | 0.0 | 0.0 | 0.00 | 0.00 | 0.00 | 83 | 1016.1 |
| 20260906125054 | 15 | 19 | 0.0 | 0.0 | 0.00 | 0.00 | 0.00 | 83 | 1016.3 |
| 20260906124550 | 15 | 47 | 0.0 | 0.0 | 0.00 | 0.00 | 0.00 | 84 | 1016.3 |
| 20260906124045 | 15 | 39 | 1.6 | 3.2 | 0.00 | 0.00 | 0.00 | 83 | 1016.1 |
| 20260906123544 | 15 | 36 | 0.0 | 0.0 | 0.00 | 0.00 | 0.00 | 83 | 1016.1 |
| 20260906123039 | 15 | 43 | 1.6 | 1.6 | 0.00 | 0.00 | 0.00 | 83 | 1016.1 |
| 20260906122538 | 15 | 28 | 1.6 | 1.6 | 0.00 | 0.00 | 0.00 | 82 | 1016.1 |
| 20260906122035 | 15 | 24 | 0.0 | 1.6 | 0.00 | 0.00 | 0.00 | 82 | 1016.4 |
| 20260906121531 | 15 | 24 | 1.6 | 1.6 | 0.00 | 0.00 | 0.00 | 81 | 1016.3 |
| 20260906121027 | 16 | 32 | 1.6 | 3.2 | 0.00 | 0.00 | 0.00 | 81 | 1016.4 |
| 20260906120522 | 16 | 35 | 1.6 | 1.6 | 0.00 | 0.00 | 0.00 | 80 | 1016.5 |
| 20260906120019 | 16 | 46 | 3.2 | 3.2 | 0.00 | 0.00 | 0.00 | 80 | 1016.3 |
| 20260906115514 | 16 | 52 | 4.8 | 4.8 | 0.00 | 0.00 | 0.00 | 80 | 1016.3 |
| 20260906115014 | 16 | 41 | 1.6 | 3.2 | 0.00 | 0.00 | 0.00 | 79 | 1016.1 |
| 20260906114509 | 16 | 52 | 0.0 | 1.6 | 0.00 | 0.00 | 0.00 | 79 | 1016.3 |
| 20260906114004 | 16 | 41 | 3.2 | 4.8 | 0.00 | 0.00 | 0.00 | 78 | 1016.5 |
| 20260906113503 | 16 | 48 | 0.0 | 1.6 | 0.00 | 0.00 | 0.00 | 78 | 1016.4 |
| 20260906112958 | 16 | 46 | 4.8 | 4.8 | 0.00 | 0.00 | 0.00 | 79 | 1016.8 |
| 20260906112453 | 16 | 55 | 3.2 | 4.8 | 0.00 | 0.00 | 0.00 | 79 | 1016.7 |
| 20260906111950 | 16 | 24 | 1.6 | 1.6 | 0.00 | 0.00 | 0.00 | 78 | 1016.6 |
| 20260906111448 | 16 | 16 | 0.0 | 1.6 | 0.00 | 0.00 | 0.00 | 78 | 1016.6 |
| 20260906110944 | 16 | 24 | 3.2 | 4.8 | 0.00 | 0.00 | 0.00 | 78 | 1016.8 |
| 20260906110439 | 16 | 14 | 3.2 | 3.2 | 0.00 | 0.00 | 0.00 | 77 | 1016.6 |
| 20260906105938 | 16 | 8 | 1.6 | 1.6 | 0.00 | 0.00 | 0.00 | 77 | 1016.6 |
| 20260906105434 | 16 | 2 | 0.0 | 1.6 | 0.00 | 0.00 | 0.00 | 76 | 1016.7 |
| 20260906104929 | 16 | 34 | 0.0 | 0.0 | 0.00 | 0.00 | 0.00 | 76 | 1016.5 |
| 20260906104428 | 16 | 349 | 1.6 | 1.6 | 0.00 | 0.00 | 0.00 | 75 | 1016.8 |
| 20260906103922 | 16 | 19 | 0.0 | 1.6 | 0.00 | 0.00 | 0.00 | 75 | 1016.4 |
| 20260906103420 | 16 | 14 | 0.0 | 1.6 | 0.00 | 0.00 | 0.00 | 75 | 1016.7 |
| 20260906102916 | 16 | 14 | 0.0 | 1.6 | 0.00 | 0.00 | 0.00 | 74 | 1016.6 |
| 20260906102415 | 16 | 15 | 0.0 | 1.6 | 0.00 | 0.00 | 0.00 | 74 | 1016.5 |
| 20260906101910 | 16 | 10 | 3.2 | 4.8 | 0.00 | 0.00 | 0.00 | 74 | 1016.1 |
| 20260906101405 | 16 | 354 | 3.2 | 3.2 | 0.00 | 0.00 | 0.00 | 73 | 1016.5 |
| 20260906100901 | 16 | 4 | 6.4 | 8.0 | 0.00 | 0.00 | 0.00 | 73 | 1016.0 |
| 20260906100400 | 16 | 17 | 1.6 | 3.2 | 0.00 | 0.00 | 0.00 | 73 | 1016.6 |
| 20260906095855 | 17 | 21 | 3.2 | 3.2 | 0.00 | 0.00 | 0.00 | 72 | 1016.1 |
| 20260906095350 | 17 | 14 | 3.2 | 3.2 | 0.00 | 0.00 | 0.00 | 73 | 1016.3 |
| 20260906094850 | 17 | 20 | 4.8 | 8.0 | 0.00 | 0.00 | 0.00 | 73 | 1016.3 |
| 20260906094345 | 17 | 18 | 1.6 | 3.2 | 0.00 | 0.00 | 0.00 | 73 | 1016.5 |
| 20260906093841 | 17 | 11 | 6.4 | 8.0 | 0.00 | 0.00 | 0.00 | 72 | 1016.3 |
| 20260906093337 | 17 | 20 | 4.8 | 8.0 | 0.00 | 0.00 | 0.00 | 72 | 1016.4 |
| 20260906092831 | 17 | 19 | 4.8 | 4.8 | 0.00 | 0.00 | 0.00 | 72 | 1016.0 |
| 20260906092326 | 17 | 42 | 6.4 | 9.7 | 0.00 | 0.00 | 0.00 | 71 | 1016.3 |
| 20260906091821 | 17 | 33 | 8.0 | 9.7 | 0.00 | 0.00 | 0.00 | 71 | 1016.4 |
| 20260906091318 | 17 | 48 | 8.0 | 11.3 | 0.00 | 0.00 | 0.00 | 71 | 1016.1 |
| 20260906090814 | 17 | 18 | 9.7 | 16.1 | 0.00 | 0.00 | 0.00 | 71 | 1016.4 |
| 20260906090313 | 17 | 10 | 14.5 | 24.1 | 0.00 | 0.00 | 0.00 | 71 | 1016.1 |
| 20260906085812 | 17 | 10 | 8.0 | 11.3 | 0.00 | 0.00 | 0.00 | 71 | 1016.5 |
| 20260906085307 | 17 | 33 | 4.8 | 8.0 | 0.00 | 0.00 | 0.00 | 71 | 1016.6 |
| 20260906084801 | 17 | 40 | 8.0 | 9.7 | 0.00 | 0.00 | 0.00 | 71 | 1016.6 |
| 20260906084301 | 17 | 27 | 8.0 | 11.3 | 0.00 | 0.00 | 0.00 | 71 | 1016.7 |
| 20260906083755 | 17 | 16 | 6.4 | 9.7 | 0.00 | 0.00 | 0.00 | 71 | 1016.8 |
| 20260906083251 | 17 | 33 | 4.8 | 4.8 | 0.00 | 0.00 | 0.00 | 71 | 1016.8 |
| 20260906082745 | 17 | 27 | 6.4 | 8.0 | 0.00 | 0.00 | 0.00 | 70 | 1017.0 |
| 20260906082241 | 17 | 16 | 3.2 | 4.8 | 0.00 | 0.00 | 0.00 | 70 | 1016.8 |
| 20260906081737 | 17 | 17 | 8.0 | 9.7 | 0.00 | 0.00 | 0.00 | 69 | 1016.7 |
| 20260906081231 | 17 | 19 | 6.4 | 8.0 | 0.00 | 0.00 | 0.00 | 69 | 1016.7 |
| 20260906080728 | 17 | 22 | 4.8 | 9.7 | 0.00 | 0.00 | 0.00 | 67 | 1016.7 |
| 20260906080224 | 17 | 15 | 8.0 | 9.7 | 0.00 | 0.00 | 0.00 | 67 | 1016.8 |
| 20260906075724 | 17 | 9 | 4.8 | 9.7 | 0.00 | 0.00 | 0.00 | 67 | 1016.9 |
| 20260906075218 | 17 | 14 | 4.8 | 8.0 | 0.00 | 0.00 | 0.00 | 66 | 1016.7 |
| 20260906074713 | 17 | 52 | 4.8 | 4.8 | 0.00 | 0.00 | 0.00 | 66 | 1016.9 |
| 20260906074213 | 17 | 39 | 8.0 | 12.9 | 0.00 | 0.00 | 0.00 | 65 | 1016.7 |
| 20260906073708 | 17 | 36 | 4.8 | 8.0 | 0.00 | 0.00 | 0.00 | 65 | 1016.7 |
| 20260906073203 | 17 | 36 | 6.4 | 8.0 | 0.00 | 0.00 | 0.00 | 64 | 1016.7 |
| 20260906072658 | 17 | 28 | 3.2 | 3.2 | 0.00 | 0.00 | 0.00 | 64 | 1016.5 |
| 20260906072154 | 17 | 7 | 4.8 | 4.8 | 0.00 | 0.00 | 0.00 | 63 | 1016.9 |
| 20260906071650 | 17 | 12 | 1.6 | 3.2 | 0.00 | 0.00 | 0.00 | 62 | 1017.2 |
| 20260906071149 | 17 | 12 | 1.6 | 1.6 | 0.00 | 0.00 | 0.00 | 62 | 1017.2 |
| 20260906070646 | 17 | 16 | 6.4 | 8.0 | 0.00 | 0.00 | 0.00 | 62 | 1017.0 |
| 20260906070142 | 17 | 25 | 8.0 | 11.3 | 0.00 | 0.00 | 0.00 | 61 | 1016.8 |
| 20260906065641 | 18 | 28 | 6.4 | 9.7 | 0.00 | 0.00 | 0.00 | 61 | 1017.1 |
| 20260906065136 | 18 | 37 | 9.7 | 14.5 | 0.00 | 0.00 | 0.00 | 60 | 1016.9 |
| 20260906064632 | 18 | 41 | 8.0 | 9.7 | 0.00 | 0.00 | 0.00 | 60 | 1016.7 |
| 20260906064127 | 18 | 28 | 9.7 | 12.9 | 0.00 | 0.00 | 0.00 | 59 | 1016.6 |
| 20260906063622 | 18 | 36 | 11.3 | 14.5 | 0.00 | 0.00 | 0.00 | 58 | 1016.6 |
| 20260906063118 | 18 | 35 | 11.3 | 14.5 | 0.00 | 0.00 | 0.00 | 58 | 1016.9 |
| 20260906062614 | 18 | 18 | 8.0 | 11.3 | 0.00 | 0.00 | 0.00 | 57 | 1016.7 |
| 20260906062112 | 18 | 34 | 8.0 | 12.9 | 0.00 | 0.00 | 0.00 | 57 | 1016.9 |
| 20260906061609 | 18 | 22 | 11.3 | 14.5 | 0.00 | 0.00 | 0.00 | 56 | 1016.8 |
| 20260906061108 | 18 | 41 | 16.1 | 20.9 | 0.00 | 0.00 | 0.00 | 56 | 1016.7 |
| 20260906060605 | 18 | 21 | 9.7 | 12.9 | 0.00 | 0.00 | 0.00 | 56 | 1016.6 |
| 20260906055557 | 18 | 30 | 9.7 | 14.5 | 0.00 | 0.00 | 0.00 | 55 | 1016.9 |
| 20260906055053 | 18 | 20 | 11.3 | 14.5 | 0.00 | 0.00 | 0.00 | 55 | 1016.9 |
| 20260906054553 | 18 | 46 | 11.3 | 12.9 | 0.00 | 0.00 | 0.00 | 54 | 1016.9 |
| 20260906054048 | 18 | 32 | 9.7 | 11.3 | 0.00 | 0.00 | 0.00 | 54 | 1016.8 |
| 20260906053544 | 18 | 18 | 9.7 | 12.9 | 0.00 | 0.00 | 0.00 | 53 | 1016.8 |
| 20260906053039 | 18 | 48 | 12.9 | 14.5 | 0.00 | 0.00 | 0.00 | 52 | 1016.8 |
| 20260906052535 | 19 | 26 | 9.7 | 12.9 | 0.00 | 0.00 | 0.00 | 52 | 1016.9 |
| 20260906052032 | 19 | 22 | 11.3 | 12.9 | 0.00 | 0.00 | 0.00 | 51 | 1017.2 |
| 20260906051527 | 19 | 26 | 11.3 | 12.9 | 0.00 | 0.00 | 0.00 | 50 | 1017.0 |
| 20260906051023 | 19 | 19 | 11.3 | 16.1 | 0.00 | 0.00 | 0.00 | 49 | 1017.1 |
| 20260906050518 | 19 | 32 | 9.7 | 11.3 | 0.00 | 0.00 | 0.00 | 49 | 1016.9 |
| 20260906050012 | 19 | 23 | 8.0 | 12.9 | 0.00 | 0.00 | 0.00 | 48 | 1016.7 |
| 20260906045511 | 20 | 31 | 11.3 | 14.5 | 0.00 | 0.00 | 0.00 | 47 | 1017.1 |
| 20260906045007 | 20 | 30 | 6.4 | 8.0 | 0.00 | 0.00 | 0.00 | 47 | 1017.2 |
| 20260906044502 | 20 | 45 | 8.0 | 9.7 | 0.00 | 0.00 | 0.00 | 47 | 1017.0 |
| 20260906043957 | 19 | 16 | 4.8 | 8.0 | 0.00 | 0.00 | 0.00 | 46 | 1017.2 |
| 20260906043453 | 19 | 30 | 4.8 | 4.8 | 0.00 | 0.00 | 0.00 | 46 | 1016.9 |
| 20260906042949 | 20 | 10 | 6.4 | 8.0 | 0.00 | 0.00 | 0.00 | 46 | 1017.0 |
| 20260906042448 | 20 | 26 | 3.2 | 4.8 | 0.00 | 0.00 | 0.00 | 45 | 1017.0 |
| 20260906041948 | 20 | 19 | 3.2 | 4.8 | 0.00 | 0.00 | 0.00 | 45 | 1017.0 |
| 20260906041444 | 20 | 17 | 1.6 | 3.2 | 0.00 | 0.00 | 0.00 | 45 | 1017.0 |
| 20260906040943 | 20 | 13 | 1.6 | 3.2 | 0.00 | 0.00 | 0.00 | 45 | 1017.0 |
| 20260906040439 | 20 | 19 | 3.2 | 4.8 | 0.00 | 0.00 | 0.00 | 45 | 1016.9 |
| 20260906035934 | 20 | 17 | 4.8 | 4.8 | 0.00 | 0.00 | 0.00 | 45 | 1016.8 |
| 20260906035429 | 20 | 12 | 4.8 | 8.0 | 0.00 | 0.00 | 0.00 | 45 | 1016.9 |
| 20260906034924 | 20 | 19 | 9.7 | 12.9 | 0.00 | 0.00 | 0.00 | 45 | 1016.6 |
| 20260906034419 | 20 | 16 | 3.2 | 4.8 | 0.00 | 0.00 | 0.00 | 45 | 1016.6 |
| 20260906033915 | 20 | 34 | 4.8 | 4.8 | 0.00 | 0.00 | 0.00 | 45 | 1016.7 |
| 20260906033415 | 20 | 18 | 3.2 | 4.8 | 0.00 | 0.00 | 0.00 | 44 | 1016.9 |
| 20260906032910 | 20 | 22 | 4.8 | 4.8 | 0.00 | 0.00 | 0.00 | 44 | 1016.9 |
| 20260906032407 | 20 | 21 | 1.6 | 3.2 | 0.00 | 0.00 | 0.00 | 44 | 1016.8 |
| 20260906031901 | 20 | 26 | 4.8 | 8.0 | 0.00 | 0.00 | 0.00 | 44 | 1016.8 |
| 20260906031356 | 20 | 29 | 3.2 | 3.2 | 0.00 | 0.00 | 0.00 | 44 | 1017.0 |
| 20260906030851 | 20 | 20 | 3.2 | 3.2 | 0.00 | 0.00 | 0.00 | 43 | 1016.8 |
| 20260906030346 | 20 | 22 | 3.2 | 3.2 | 0.00 | 0.00 | 0.00 | 43 | 1016.6 |
| 20260906025841 | 20 | 21 | 4.8 | 4.8 | 0.00 | 0.00 | 0.00 | 42 | 1016.7 |
| 20260906025335 | 20 | 33 | 4.8 | 4.8 | 0.00 | 0.00 | 0.00 | 42 | 1016.7 |
| 20260906024834 | 20 | 23 | 4.8 | 4.8 | 0.00 | 0.00 | 0.00 | 42 | 1016.6 |
| 20260906024333 | 20 | 31 | 3.2 | 4.8 | 0.00 | 0.00 | 0.00 | 41 | 1016.7 |
| 20260906023829 | 20 | 39 | 6.4 | 8.0 | 0.00 | 0.00 | 0.00 | 40 | 1016.7 |
| 20260906023324 | 21 | 30 | 4.8 | 8.0 | 0.00 | 0.00 | 0.00 | 40 | 1016.6 |
| 20260906022820 | 21 | 33 | 6.4 | 8.0 | 0.00 | 0.00 | 0.00 | 39 | 1016.6 |
| 20260906022315 | 21 | 47 | 6.4 | 8.0 | 0.00 | 0.00 | 0.00 | 39 | 1016.6 |
| 20260906021811 | 21 | 32 | 4.8 | 8.0 | 0.00 | 0.00 | 0.00 | 39 | 1016.6 |
| 20260906021309 | 21 | 52 | 4.8 | 8.0 | 0.00 | 0.00 | 0.00 | 39 | 1016.6 |
| 20260906020804 | 21 | 33 | 4.8 | 4.8 | 0.00 | 0.00 | 0.00 | 38 | 1016.6 |
| 20260906020259 | 21 | 43 | 3.2 | 3.2 | 0.00 | 0.00 | 0.00 | 37 | 1016.6 |
| 20260906015759 | 22 | 55 | 4.8 | 4.8 | 0.00 | 0.00 | 0.00 | 36 | 1016.3 |
| 20260906015257 | 22 | 57 | 4.8 | 4.8 | 0.00 | 0.00 | 0.00 | 36 | 1016.4 |
| 20260906014752 | 22 | 53 | 4.8 | 9.7 | 0.00 | 0.00 | 0.00 | 35 | 1016.5 |
| 20260906014247 | 23 | 81 | 6.4 | 8.0 | 0.00 | 0.00 | 0.00 | 34 | 1016.3 |
| 20260906013743 | 23 | 57 | 4.8 | 4.8 | 0.00 | 0.00 | 0.00 | 34 | 1016.5 |
| 20260906013244 | 23 | 53 | 1.6 | 3.2 | 0.00 | 0.00 | 0.00 | 33 | 1016.4 |
| 20260906012739 | 23 | 54 | 6.4 | 9.7 | 0.00 | 0.00 | 0.00 | 32 | 1016.3 |
| 20260906012233 | 23 | 69 | 8.0 | 11.3 | 0.00 | 0.00 | 0.00 | 32 | 1016.1 |
| 20260906011729 | 24 | 26 | 6.4 | 9.7 | 0.00 | 0.00 | 0.00 | 31 | 1016.1 |
| 20260906011223 | 24 | 59 | 11.3 | 14.5 | 0.00 | 0.00 | 0.00 | 31 | 1016.3 |
| 20260906010719 | 25 | 49 | 14.5 | 20.9 | 0.00 | 0.00 | 0.00 | 30 | 1016.3 |
| 20260906010215 | 25 | 74 | 9.7 | 14.5 | 0.00 | 0.00 | 0.00 | 30 | 1016.3 |
| 20260906005715 | 25 | 81 | 6.4 | 11.3 | 0.00 | 0.00 | 0.00 | 30 | 1016.1 |
| 20260906005209 | 25 | 81 | 12.9 | 17.7 | 0.00 | 0.00 | 0.00 | 29 | 1016.3 |
| 20260906004708 | 25 | 59 | 11.3 | 16.1 | 0.00 | 0.00 | 0.00 | 29 | 1015.9 |
| 20260906004203 | 25 | 51 | 11.3 | 14.5 | 0.00 | 0.00 | 0.00 | 29 | 1015.9 |
| 20260906003658 | 26 | 55 | 8.0 | 12.9 | 0.00 | 0.00 | 0.00 | 28 | 1015.9 |
| 20260906003154 | 26 | 75 | 8.0 | 14.5 | 0.00 | 0.00 | 0.00 | 28 | 1015.9 |
| 20260906002654 | 26 | 31 | 4.8 | 8.0 | 0.00 | 0.00 | 0.00 | 28 | 1016.0 |
| 20260906002148 | 26 | 38 | 8.0 | 11.3 | 0.00 | 0.00 | 0.00 | 28 | 1016.0 |
| 20260906001643 | 26 | 63 | 4.8 | 8.0 | 0.00 | 0.00 | 0.00 | 28 | 1015.8 |
| 20260906001138 | 26 | 73 | 9.7 | 11.3 | 0.00 | 0.00 | 0.00 | 28 | 1016.0 |
| 20260906000634 | 26 | 87 | 12.9 | 14.5 | 0.00 | 0.00 | 0.00 | 27 | 1016.1 |
| 20260906000129 | 26 | 48 | 8.0 | 9.7 | 0.00 | 0.00 | 0.00 | 27 | 1016.0 |
| 20260905235627 | 27 | 51 | 8.0 | 11.3 | 0.00 | 0.00 | 0.00 | 26 | 1015.9 |
| 20260905235123 | 26 | 39 | 6.4 | 11.3 | 0.00 | 0.00 | 0.00 | 26 | 1016.0 |
| 20260905234618 | 26 | 73 | 11.3 | 16.1 | 0.00 | 0.00 | 0.00 | 26 | 1016.0 |
| 20260905234113 | 26 | 38 | 8.0 | 9.7 | 0.00 | 0.00 | 0.00 | 26 | 1016.0 |
| 20260905233608 | 27 | 59 | 8.0 | 8.0 | 0.00 | 0.00 | 0.00 | 26 | 1015.9 |
| 20260905233103 | 27 | 52 | 11.3 | 14.5 | 0.00 | 0.00 | 0.00 | 26 | 1015.8 |
| 20260905232558 | 26 | 42 | 6.4 | 8.0 | 0.00 | 0.00 | 0.00 | 26 | 1015.6 |
| 20260905232054 | 27 | 57 | 8.0 | 9.7 | 0.00 | 0.00 | 0.00 | 25 | 1015.5 |
| 20260905231549 | 27 | 39 | 12.9 | 16.1 | 0.00 | 0.00 | 0.00 | 26 | 1015.8 |
| 20260905231045 | 27 | 72 | 8.0 | 11.3 | 0.00 | 0.00 | 0.00 | 25 | 1015.8 |
| 20260905230544 | 27 | 60 | 8.0 | 14.5 | 0.00 | 0.00 | 0.00 | 26 | 1015.7 |
| 20260905230043 | 27 | 53 | 8.0 | 9.7 | 0.00 | 0.00 | 0.00 | 26 | 1015.5 |
| 20260905225538 | 27 | 64 | 4.8 | 8.0 | 0.00 | 0.00 | 0.00 | 26 | 1015.6 |
| 20260905225032 | 27 | 75 | 4.8 | 4.8 | 0.00 | 0.00 | 0.00 | 26 | 1015.6 |
| 20260905224527 | 27 | 47 | 11.3 | 14.5 | 0.00 | 0.00 | 0.00 | 25 | 1015.6 |
| 20260905224026 | 27 | 39 | 12.9 | 16.1 | 0.00 | 0.00 | 0.00 | 25 | 1015.9 |
| 20260905223525 | 27 | 21 | 8.0 | 11.3 | 0.00 | 0.00 | 0.00 | 25 | 1015.7 |
| 20260905223020 | 27 | 69 | 9.7 | 11.3 | 0.00 | 0.00 | 0.00 | 25 | 1015.6 |